createdAt,value
2022-12-06T00:00:46.924Z,88.65
2022-12-06T00:03:13.867Z,89.20
2022-12-06T00:05:44.718Z,88.68
2022-12-06T00:08:12.788Z,88.17
2022-12-06T00:10:39.261Z,87.79
2022-12-06T00:13:05.750Z,88.31
2022-12-06T00:15:36.451Z,88.60
2022-12-06T00:18:03.656Z,87.98
2022-12-06T00:20:30.068Z,88.05
2022-12-06T00:22:56.649Z,88.19
2022-12-06T00:25:23.037Z,87.88
2022-12-06T00:27:50.729Z,87.90
2022-12-06T00:30:17.478Z,87.92
2022-12-06T00:32:43.888Z,88.35
2022-12-06T00:35:10.317Z,87.95
2022-12-06T00:37:37.289Z,88.35
2022-12-06T00:40:03.959Z,87.95
2022-12-06T00:42:30.375Z,88.30
2022-12-06T00:44:56.829Z,88.25
2022-12-06T00:47:23.285Z,88.28
2022-12-06T00:49:49.780Z,87.86
2022-12-06T00:52:16.176Z,87.70
2022-12-06T00:54:42.684Z,88.42
2022-12-06T00:57:09.301Z,88.12
2022-12-06T00:59:35.674Z,88.42
2022-12-06T01:02:02.112Z,89.07
2022-12-06T01:04:28.723Z,89.55
2022-12-06T01:06:55.107Z,88.97
2022-12-06T01:09:21.572Z,88.47
2022-12-06T01:11:47.972Z,88.03
2022-12-06T01:14:14.407Z,88.55
2022-12-06T01:16:40.939Z,88.45
2022-12-06T01:19:07.472Z,88.31
2022-12-06T01:21:34.206Z,88.44
2022-12-06T01:24:00.648Z,87.89
2022-12-06T01:26:31.048Z,88.58
2022-12-06T01:28:58.987Z,87.70
2022-12-06T01:31:25.687Z,88.72
2022-12-06T01:33:52.293Z,89.16
2022-12-06T01:36:25.972Z,88.70
2022-12-06T01:38:58.293Z,88.12
2022-12-06T01:41:26.518Z,88.54
2022-12-06T01:43:53.848Z,88.42
2022-12-06T01:46:41.532Z,88.77
2022-12-06T01:49:19.314Z,88.43
2022-12-06T01:52:01.496Z,88.13
2022-12-06T01:54:29.591Z,88.17
2022-12-06T01:56:57.802Z,88.64
2022-12-06T01:59:25.781Z,88.96
2022-12-06T02:01:53.297Z,89.30
2022-12-06T02:04:20.393Z,88.52
2022-12-06T02:06:47.766Z,88.28
2022-12-06T02:09:16.487Z,88.67
2022-12-06T02:11:43.620Z,88.12
2022-12-06T02:14:15.316Z,88.52
2022-12-06T02:16:59.713Z,88.45
2022-12-06T02:19:32.230Z,88.36
2022-12-06T02:22:16.136Z,87.96
2022-12-06T02:25:10.528Z,88.37
2022-12-06T02:27:45.301Z,88.27
2022-12-06T02:30:18.484Z,88.58
2022-12-06T02:32:54.657Z,88.17
2022-12-06T02:35:43.335Z,88.94
2022-12-06T02:38:19.865Z,88.71
2022-12-06T02:40:55.008Z,88.40
2022-12-06T02:43:26.100Z,88.41
2022-12-06T02:45:56.925Z,88.63
2022-12-06T02:48:25.719Z,88.22
2022-12-06T02:50:59.414Z,88.35
2022-12-06T02:53:29.076Z,88.02
2022-12-06T02:55:57.099Z,87.94
2022-12-06T02:58:23.598Z,88.64
2022-12-06T03:00:59.762Z,88.84
2022-12-06T03:03:53.816Z,88.66
2022-12-06T03:06:45.746Z,88.34
2022-12-06T03:09:29.489Z,88.69
2022-12-06T03:12:06.677Z,88.48
2022-12-06T03:14:40.798Z,88.41
2022-12-06T03:17:07.015Z,88.65
2022-12-06T03:19:36.306Z,88.49
2022-12-06T03:22:08.814Z,88.22
2022-12-06T03:24:38.387Z,88.26
2022-12-06T03:27:09.849Z,88.38
2022-12-06T03:29:40.689Z,88.38
2022-12-06T03:32:10.425Z,88.02
2022-12-06T03:34:41.397Z,88.38
2022-12-06T03:37:12.038Z,88.44
2022-12-06T03:40:01.513Z,88.50
2022-12-06T03:42:29.112Z,88.21
2022-12-06T03:44:55.470Z,88.34
2022-12-06T03:47:40.062Z,88.33
2022-12-06T03:50:16.676Z,88.23
2022-12-06T03:52:43.272Z,88.39
2022-12-06T03:55:09.910Z,88.39
2022-12-06T03:57:36.371Z,87.97
2022-12-06T04:00:04.171Z,88.79
2022-12-06T04:02:30.587Z,88.63
2022-12-06T04:04:57.940Z,88.62
2022-12-06T04:07:24.262Z,88.40
2022-12-06T04:09:56.181Z,88.70
2022-12-06T04:12:42.628Z,88.24
2022-12-06T04:15:10.180Z,88.42
2022-12-06T04:17:58.827Z,88.31
2022-12-06T04:20:27.270Z,88.32
2022-12-06T04:23:06.175Z,88.11
2022-12-06T04:25:34.796Z,88.55
2022-12-06T04:28:21.764Z,88.44
2022-12-06T04:31:07.144Z,88.54
2022-12-06T04:33:52.213Z,88.95
2022-12-06T04:36:36.989Z,88.46
2022-12-06T04:39:03.894Z,88.87
2022-12-06T04:42:05.330Z,88.79
2022-12-06T04:44:31.721Z,88.88
2022-12-06T04:46:58.136Z,88.84
2022-12-06T04:49:26.323Z,89.17
2022-12-06T04:51:54.126Z,88.73
2022-12-06T04:54:22.064Z,89.00
2022-12-06T04:56:48.974Z,88.80
2022-12-06T04:59:15.439Z,89.04
2022-12-06T05:01:41.851Z,88.62
2022-12-06T05:04:10.070Z,88.47
2022-12-06T05:06:36.665Z,88.56
2022-12-06T05:09:03.893Z,88.65
2022-12-06T05:11:30.415Z,88.84
2022-12-06T05:13:56.770Z,88.50
2022-12-06T05:16:23.246Z,88.73
2022-12-06T05:18:49.691Z,88.99
2022-12-06T05:21:19.284Z,88.80
2022-12-06T05:23:46.017Z,88.74
2022-12-06T05:26:18.041Z,89.04
2022-12-06T05:28:45.773Z,89.11
2022-12-06T05:31:13.192Z,88.94
2022-12-06T05:33:39.761Z,89.29
2022-12-06T05:36:13.013Z,89.08
2022-12-06T05:38:39.616Z,89.27
2022-12-06T05:41:06.775Z,89.03
2022-12-06T05:43:33.356Z,88.73
2022-12-06T05:45:59.900Z,88.98
2022-12-06T05:48:26.572Z,89.06
2022-12-06T05:50:53.663Z,89.30
2022-12-06T05:53:20.990Z,89.31
2022-12-06T05:55:47.578Z,89.23
2022-12-06T05:58:14.655Z,89.54
2022-12-06T06:00:41.099Z,89.12
2022-12-06T06:03:07.671Z,88.86
2022-12-06T06:05:36.341Z,89.10
2022-12-06T06:08:02.706Z,89.05
2022-12-06T06:10:29.081Z,88.96
2022-12-06T06:12:55.521Z,89.21
2022-12-06T06:15:21.865Z,89.17
2022-12-06T06:17:48.245Z,89.22
2022-12-06T06:20:14.681Z,89.04
2022-12-06T06:22:42.365Z,89.34
2022-12-06T06:25:09.640Z,89.38
2022-12-06T06:27:37.691Z,89.25
2022-12-06T06:30:10.221Z,89.06
2022-12-06T06:32:37.454Z,89.33
2022-12-06T06:35:05.190Z,89.56
2022-12-06T06:37:33.006Z,89.47
2022-12-06T06:40:00.520Z,89.23
2022-12-06T06:42:27.357Z,89.51
2022-12-06T06:44:54.600Z,89.56
2022-12-06T06:47:22.400Z,89.65
2022-12-06T06:49:49.052Z,89.62
2022-12-06T06:52:15.728Z,89.83
2022-12-06T06:54:42.060Z,89.73
2022-12-06T06:57:12.854Z,89.40
2022-12-06T06:59:43.039Z,89.37
2022-12-06T07:02:13.322Z,89.27
2022-12-06T07:04:39.929Z,89.48
2022-12-06T07:07:06.512Z,89.26
2022-12-06T07:09:33.871Z,89.55
2022-12-06T07:12:00.534Z,89.55
2022-12-06T07:14:26.955Z,89.38
2022-12-06T07:16:53.400Z,89.46
2022-12-06T07:19:19.790Z,89.63
2022-12-06T07:21:46.205Z,89.36
2022-12-06T07:24:12.782Z,89.63
2022-12-06T07:26:39.129Z,90.18
2022-12-06T07:29:05.500Z,90.04
2022-12-06T07:31:33.623Z,89.74
2022-12-06T07:34:01.425Z,89.53
2022-12-06T07:36:30.639Z,89.49
2022-12-06T07:38:58.645Z,89.34
2022-12-06T07:41:46.193Z,89.84
2022-12-06T07:44:34.036Z,90.08
2022-12-06T07:47:00.709Z,89.97
2022-12-06T07:49:27.155Z,89.77
2022-12-06T07:51:54.865Z,90.03
2022-12-06T07:54:21.609Z,89.87
2022-12-06T07:56:47.941Z,89.73
2022-12-06T07:59:14.498Z,89.70
2022-12-06T08:01:41.290Z,89.91
2022-12-06T08:04:08.085Z,89.78
2022-12-06T08:06:35.365Z,90.19
2022-12-06T08:09:01.982Z,89.98
2022-12-06T08:11:28.721Z,89.83
2022-12-06T08:13:55.077Z,89.97
2022-12-06T08:16:21.467Z,90.25
2022-12-06T08:18:47.871Z,90.54
2022-12-06T08:21:14.295Z,90.10
2022-12-06T08:23:40.690Z,90.41
2022-12-06T08:26:09.965Z,90.25
2022-12-06T08:28:37.579Z,89.87
2022-12-06T08:31:09.442Z,90.58
2022-12-06T08:33:36.631Z,90.41
2022-12-06T08:36:08.861Z,90.13
2022-12-06T08:38:37.114Z,90.13
2022-12-06T08:41:04.866Z,89.98
2022-12-06T08:43:31.701Z,90.41
2022-12-06T08:45:58.281Z,90.32
2022-12-06T08:48:24.658Z,90.92
2022-12-06T08:50:51.035Z,90.59
2022-12-06T08:53:17.585Z,90.31
2022-12-06T08:55:58.741Z,90.08
2022-12-06T08:58:29.145Z,90.15
2022-12-06T09:00:55.506Z,90.46
2022-12-06T09:03:21.943Z,90.43
2022-12-06T09:05:48.321Z,91.04
2022-12-06T09:08:14.966Z,90.40
2022-12-06T09:10:43.029Z,90.58
2022-12-06T09:13:09.441Z,90.12
2022-12-06T09:15:37.425Z,90.61
2022-12-06T09:18:03.969Z,90.36
2022-12-06T09:20:30.377Z,90.68
2022-12-06T09:22:57.771Z,90.67
2022-12-06T09:25:24.175Z,90.12
2022-12-06T09:27:50.549Z,89.96
2022-12-06T09:30:17.485Z,90.61
2022-12-06T09:32:43.951Z,89.71
2022-12-06T09:35:15.117Z,90.08
2022-12-06T09:37:42.771Z,89.90
2022-12-06T09:40:21.294Z,89.79
2022-12-06T09:42:53.560Z,89.48
2022-12-06T09:45:50.466Z,90.44
2022-12-06T09:48:48.751Z,89.76
2022-12-06T09:51:33.990Z,89.41
2022-12-06T09:54:33.623Z,89.66
2022-12-06T09:57:12.075Z,89.84
2022-12-06T09:59:57.490Z,89.02
2022-12-06T10:02:36.397Z,89.65
2022-12-06T10:05:12.028Z,89.61
2022-12-06T10:08:08.664Z,89.17
2022-12-06T10:10:53.780Z,89.24
2022-12-06T10:13:43.626Z,89.71
2022-12-06T10:16:39.396Z,88.57
2022-12-06T10:19:35.260Z,88.73
2022-12-06T10:22:07.676Z,88.97
2022-12-06T10:24:37.183Z,89.40
2022-12-06T10:27:20.072Z,90.01
2022-12-06T10:30:01.779Z,89.00
2022-12-06T10:32:40.321Z,89.11
2022-12-06T10:35:35.590Z,89.30
2022-12-06T10:38:08.085Z,89.06
2022-12-06T10:40:49.702Z,89.47
2022-12-06T10:43:23.459Z,89.08
2022-12-06T10:46:24.042Z,88.15
2022-12-06T10:49:00.906Z,87.95
2022-12-06T10:51:43.496Z,88.05
2022-12-06T10:54:28.065Z,87.61
2022-12-06T10:56:55.831Z,87.32
2022-12-06T10:59:32.624Z,87.56
2022-12-06T11:02:04.750Z,87.24
2022-12-06T11:04:36.677Z,87.73
2022-12-06T11:07:13.772Z,87.76
2022-12-06T11:09:45.977Z,87.99
2022-12-06T11:12:31.493Z,86.68
2022-12-06T11:15:18.152Z,87.34
2022-12-06T11:18:04.382Z,87.06
2022-12-06T11:20:39.758Z,87.06
2022-12-06T11:23:24.875Z,86.94
2022-12-06T11:26:44.508Z,86.89
2022-12-06T11:29:13.131Z,86.70
2022-12-06T11:31:52.808Z,86.51
2022-12-06T11:34:36.266Z,86.54
2022-12-06T11:37:04.143Z,86.43
2022-12-06T11:39:32.475Z,86.66
2022-12-06T11:42:03.057Z,86.47
2022-12-06T11:44:38.719Z,86.74
2022-12-06T11:47:06.722Z,87.88
2022-12-06T11:49:42.379Z,87.88
2022-12-06T11:52:33.897Z,87.04
2022-12-06T11:55:05.577Z,87.33
2022-12-06T11:57:55.342Z,86.77
2022-12-06T12:00:24.404Z,86.25
2022-12-06T12:02:54.380Z,86.78
2022-12-06T12:05:24.520Z,85.78
2022-12-06T12:08:17.717Z,85.60
2022-12-06T12:10:46.251Z,85.14
2022-12-06T12:13:51.123Z,84.94
2022-12-06T12:16:22.983Z,84.89
2022-12-06T12:19:19.323Z,85.77
2022-12-06T12:21:49.626Z,86.06
2022-12-06T12:25:18.482Z,85.78
2022-12-06T12:27:40.307Z,85.48
2022-12-06T12:30:35.171Z,85.25
2022-12-06T12:33:07.563Z,84.76
2022-12-06T12:35:35.480Z,84.87
2022-12-06T12:38:18.286Z,84.22
2022-12-06T12:40:52.095Z,84.13
2022-12-06T12:43:29.479Z,85.19
2022-12-06T12:46:05.234Z,84.60
2022-12-06T12:48:32.123Z,84.35
2022-12-06T12:51:01.523Z,83.75
2022-12-06T12:53:32.156Z,83.14
2022-12-06T12:56:20.610Z,82.87
2022-12-06T12:58:49.291Z,83.43
2022-12-06T13:01:24.891Z,82.63
2022-12-06T13:03:57.220Z,81.52
2022-12-06T13:06:45.289Z,82.00
2022-12-06T13:09:19.963Z,81.91
2022-12-06T13:11:53.253Z,81.62
2022-12-06T13:14:22.331Z,81.51
2022-12-06T13:16:53.304Z,79.87
2022-12-06T13:19:24.148Z,80.78
2022-12-06T13:21:51.881Z,80.77
2022-12-06T13:24:24.435Z,79.86
2022-12-06T13:26:58.716Z,79.91
2022-12-06T13:29:28.047Z,79.94
2022-12-06T13:31:58.158Z,80.40
2022-12-06T13:34:24.406Z,81.47
2022-12-06T13:36:53.646Z,81.64
2022-12-06T13:39:32.301Z,81.00
2022-12-06T13:42:18.927Z,81.89
2022-12-06T13:44:48.204Z,81.50
2022-12-06T13:47:26.669Z,81.67
2022-12-06T13:50:22.024Z,81.36
2022-12-06T13:52:48.273Z,81.14
2022-12-06T13:55:23.872Z,80.86
2022-12-06T13:57:51.224Z,80.03
2022-12-06T14:00:29.734Z,79.22
2022-12-06T14:03:03.412Z,79.42
2022-12-06T14:08:29.960Z,78.99
2022-12-06T14:11:15.223Z,78.53
2022-12-06T14:13:43.627Z,78.42
2022-12-06T14:16:22.824Z,77.61
2022-12-06T14:18:50.270Z,78.11
2022-12-06T14:21:30.768Z,77.84
2022-12-06T14:23:57.592Z,77.48
2022-12-06T14:26:27.745Z,77.57
2022-12-06T14:28:57.113Z,77.30
2022-12-06T14:31:30.370Z,77.52
2022-12-06T14:33:57.137Z,76.97
2022-12-06T14:36:30.372Z,76.73
2022-12-06T14:39:01.367Z,76.78
2022-12-06T14:41:53.031Z,77.07
2022-12-06T14:44:20.943Z,77.77
2022-12-06T14:46:49.335Z,78.40
2022-12-06T14:49:37.931Z,78.11
2022-12-06T14:52:18.178Z,78.74
2022-12-06T14:54:45.840Z,78.62
2022-12-06T14:57:24.133Z,78.94
2022-12-06T15:00:15.154Z,78.67
2022-12-06T15:03:11.333Z,78.53
2022-12-06T15:05:44.193Z,78.28
2022-12-06T15:08:25.885Z,78.08
2022-12-06T15:10:58.289Z,78.18
2022-12-06T15:13:25.022Z,77.85
2022-12-06T15:16:08.022Z,78.50
2022-12-06T15:18:43.321Z,77.74
2022-12-06T15:21:14.175Z,79.06
2022-12-06T15:23:48.302Z,78.98
2022-12-06T15:26:14.677Z,79.34
2022-12-06T15:28:41.621Z,79.00
2022-12-06T15:31:19.101Z,79.33
2022-12-06T15:33:46.366Z,79.47
2022-12-06T15:36:18.277Z,78.97
2022-12-06T15:38:45.102Z,79.06
2022-12-06T15:41:26.112Z,79.52
2022-12-06T15:43:53.637Z,79.20
2022-12-06T15:46:28.548Z,79.56
2022-12-06T15:48:55.802Z,79.09
2022-12-06T15:51:27.672Z,78.67
2022-12-06T15:53:55.918Z,79.47
2022-12-06T15:56:25.542Z,78.43
2022-12-06T15:58:51.938Z,79.09
2022-12-06T16:01:33.083Z,79.43
2022-12-06T16:03:59.652Z,79.22
2022-12-06T16:06:27.646Z,79.15
2022-12-06T16:08:54.247Z,79.66
2022-12-06T16:11:23.803Z,79.39
2022-12-06T16:13:50.822Z,79.55
2022-12-06T16:16:22.105Z,79.99
2022-12-06T16:18:49.614Z,79.82
2022-12-06T16:21:34.752Z,79.73
2022-12-06T16:24:17.997Z,80.05
2022-12-06T16:26:45.679Z,79.87
2022-12-06T16:29:19.070Z,79.86
2022-12-06T16:31:45.636Z,79.66
2022-12-06T16:34:12.470Z,80.62
2022-12-06T16:36:58.673Z,80.75
2022-12-06T16:39:26.277Z,80.26
2022-12-06T16:41:52.978Z,80.34
2022-12-06T16:44:19.487Z,80.47
2022-12-06T16:46:46.445Z,79.39
2022-12-06T16:52:08.072Z,79.96
2022-12-06T16:54:34.556Z,80.64
2022-12-06T16:57:03.455Z,80.79
2022-12-06T16:59:32.400Z,80.79
2022-12-06T17:01:59.369Z,79.91
2022-12-06T17:04:26.653Z,80.42
2022-12-06T17:06:53.137Z,80.43
2022-12-06T17:09:19.686Z,80.25
2022-12-06T17:12:06.035Z,80.59
2022-12-06T17:14:34.221Z,80.40
2022-12-06T17:17:03.940Z,80.46
2022-12-06T17:19:33.126Z,80.55
2022-12-06T17:22:02.163Z,80.04
2022-12-06T17:24:28.823Z,80.06
2022-12-06T17:26:55.767Z,80.28
2022-12-06T17:29:23.429Z,80.52
2022-12-06T17:31:49.854Z,80.48
2022-12-06T17:34:16.651Z,80.38
2022-12-06T17:36:43.034Z,79.75
2022-12-06T17:39:10.491Z,80.12
2022-12-06T17:41:55.626Z,79.62
2022-12-06T17:44:22.079Z,79.85
2022-12-06T17:46:48.462Z,79.51
2022-12-06T17:49:18.256Z,79.56
2022-12-06T17:51:45.166Z,79.39
2022-12-06T17:54:12.186Z,79.28
2022-12-06T17:56:41.329Z,79.37
2022-12-06T17:59:13.973Z,79.57
2022-12-06T18:02:06.613Z,79.63
2022-12-06T18:04:31.392Z,79.49
2022-12-06T18:06:58.477Z,79.41
2022-12-06T18:09:25.093Z,79.42
2022-12-06T18:11:51.472Z,79.04
2022-12-06T18:14:18.835Z,79.16
2022-12-06T18:16:46.004Z,79.13
2022-12-06T18:19:16.222Z,79.50
2022-12-06T18:21:43.192Z,79.49
2022-12-06T18:24:21.527Z,79.13
2022-12-06T18:26:49.539Z,78.92
2022-12-06T18:29:22.662Z,79.07
2022-12-06T18:31:50.249Z,79.00
2022-12-06T18:34:17.365Z,79.33
2022-12-06T18:36:44.079Z,79.56
2022-12-06T18:39:15.310Z,80.05
2022-12-06T18:41:42.953Z,79.44
2022-12-06T18:44:10.449Z,79.71
2022-12-06T18:46:38.593Z,80.10
2022-12-06T18:49:05.085Z,79.62
2022-12-06T18:51:34.424Z,80.33
2022-12-06T18:54:02.993Z,80.46
2022-12-06T18:56:30.241Z,80.20
2022-12-06T18:59:02.036Z,80.55
2022-12-06T19:01:31.000Z,81.40
2022-12-06T19:04:03.068Z,81.38
2022-12-06T19:06:33.064Z,81.92
2022-12-06T19:09:06.515Z,81.77
2022-12-06T19:11:36.582Z,81.82
2022-12-06T19:14:03.337Z,81.36
2022-12-06T19:16:34.365Z,81.80
2022-12-06T19:19:03.423Z,82.48
2022-12-06T19:21:32.849Z,81.41
2022-12-06T19:23:59.289Z,81.65
2022-12-06T19:26:26.653Z,81.74
2022-12-06T19:28:53.428Z,81.58
2022-12-06T19:31:22.828Z,81.79
2022-12-06T19:33:50.546Z,82.09
2022-12-06T19:36:28.748Z,81.64
2022-12-06T19:39:06.125Z,81.48
2022-12-06T19:41:53.204Z,81.31
2022-12-06T19:44:19.570Z,81.32
2022-12-06T19:46:46.491Z,81.76
2022-12-06T19:49:14.181Z,81.56
2022-12-06T19:51:42.889Z,81.30
2022-12-06T19:54:11.603Z,81.64
2022-12-06T19:56:39.240Z,81.50
2022-12-06T19:59:11.557Z,81.59
2022-12-06T20:01:40.264Z,81.79
2022-12-06T20:04:06.894Z,81.38
2022-12-06T20:06:34.934Z,81.26
2022-12-06T20:09:01.575Z,81.74
2022-12-06T20:11:47.096Z,82.82
2022-12-06T20:14:17.268Z,81.84
2022-12-06T20:16:44.642Z,81.55
2022-12-06T20:19:27.820Z,81.88
2022-12-06T20:21:54.253Z,81.80
2022-12-06T20:24:21.866Z,81.53
2022-12-06T20:26:50.143Z,81.66
2022-12-06T20:29:18.306Z,81.63
2022-12-06T20:31:45.591Z,81.60
2022-12-06T20:34:15.393Z,81.06
2022-12-06T20:36:42.810Z,81.33
2022-12-06T20:39:19.394Z,81.14
2022-12-06T20:41:45.746Z,81.48
2022-12-06T20:44:12.270Z,81.45
2022-12-06T20:46:38.750Z,81.78
2022-12-06T20:49:05.640Z,81.36
2022-12-06T20:51:33.231Z,82.67
2022-12-06T20:54:02.167Z,81.42
2022-12-06T20:56:35.377Z,81.71
2022-12-06T20:59:03.407Z,82.18
2022-12-06T21:01:36.362Z,81.92
2022-12-06T21:04:03.243Z,82.61
2022-12-06T21:06:29.610Z,82.80
2022-12-06T21:08:56.031Z,82.02
2022-12-06T21:11:24.523Z,82.20
2022-12-06T21:13:53.414Z,81.99
2022-12-06T21:16:26.283Z,82.35
2022-12-06T21:18:58.748Z,82.80
2022-12-06T21:21:32.210Z,82.01
2022-12-06T21:24:00.138Z,81.79
2022-12-06T21:26:27.131Z,83.06
2022-12-06T21:28:54.449Z,82.33
2022-12-06T21:31:21.255Z,82.73
2022-12-06T21:33:47.601Z,82.55
2022-12-06T21:36:13.953Z,82.69
2022-12-06T21:38:40.311Z,82.72
2022-12-06T21:41:15.119Z,82.20
2022-12-06T21:43:41.426Z,83.60
2022-12-06T21:46:12.073Z,82.49
2022-12-06T21:48:38.591Z,82.26
2022-12-06T21:51:08.042Z,82.32
2022-12-06T21:53:34.770Z,83.20
2022-12-06T21:56:07.299Z,82.84
2022-12-06T21:58:35.070Z,83.44
2022-12-06T22:01:06.179Z,83.27
2022-12-06T22:03:33.063Z,83.32
2022-12-06T22:06:03.934Z,83.65
2022-12-06T22:08:30.306Z,83.62
2022-12-06T22:10:57.305Z,83.22
2022-12-06T22:13:23.614Z,83.71
2022-12-06T22:15:50.045Z,83.22
2022-12-06T22:18:16.468Z,84.07
2022-12-06T22:20:42.845Z,83.26
2022-12-06T22:23:09.153Z,83.77
2022-12-06T22:25:39.198Z,83.87
2022-12-06T22:28:05.643Z,84.71
2022-12-06T22:30:31.981Z,83.99
2022-12-06T22:32:58.283Z,84.38
2022-12-06T22:35:24.624Z,84.46
2022-12-06T22:37:50.936Z,84.50
2022-12-06T22:40:17.246Z,84.28
2022-12-06T22:42:43.567Z,83.82
2022-12-06T22:45:10.373Z,84.46
2022-12-06T22:47:36.705Z,84.23
2022-12-06T22:50:03.647Z,83.90
2022-12-06T22:52:30.409Z,84.44
2022-12-06T22:54:56.778Z,84.51
2022-12-06T22:57:23.399Z,83.98
2022-12-06T22:59:49.754Z,83.58
2022-12-06T23:02:16.181Z,84.54
2022-12-06T23:04:42.586Z,84.63
2022-12-06T23:07:09.576Z,84.27
2022-12-06T23:09:36.026Z,84.10
2022-12-06T23:12:02.445Z,84.08
2022-12-06T23:14:28.880Z,85.68
2022-12-06T23:16:55.272Z,84.33
2022-12-06T23:19:21.626Z,84.55
2022-12-06T23:21:48.143Z,84.79
2022-12-06T23:24:14.824Z,84.54
2022-12-06T23:26:53.135Z,84.90
2022-12-06T23:29:21.075Z,84.95
2022-12-06T23:31:47.577Z,84.70
2022-12-06T23:34:21.952Z,84.35
2022-12-06T23:36:49.335Z,85.72
2022-12-06T23:39:15.730Z,85.78
2022-12-06T23:41:42.404Z,85.59
2022-12-06T23:44:11.434Z,85.80
2022-12-06T23:46:39.720Z,85.45
2022-12-06T23:49:06.918Z,86.75
2022-12-06T23:51:38.235Z,86.48
2022-12-06T23:54:07.252Z,86.61
2022-12-06T23:56:36.685Z,88.25
2022-12-06T23:59:04.698Z,86.68
